createdAt,value
2019-02-27T00:00:11.478Z,3.82
2019-02-27T00:01:10.485Z,3.89
2019-02-27T00:02:10.403Z,3.94
2019-02-27T00:03:10.326Z,3.82
2019-02-27T00:04:10.245Z,3.98
2019-02-27T00:05:10.168Z,3.72
2019-02-27T00:06:10.082Z,3.69
2019-02-27T00:07:09.999Z,3.65
2019-02-27T00:08:09.916Z,3.66
2019-02-27T00:09:09.837Z,3.66
2019-02-27T00:10:09.750Z,3.56
2019-02-27T00:11:09.945Z,3.65
2019-02-27T00:12:09.589Z,3.50
2019-02-27T00:13:09.558Z,3.53
2019-02-27T00:14:09.424Z,3.59
2019-02-27T00:15:09.341Z,3.54
2019-02-27T00:16:11.121Z,3.66
2019-02-27T00:17:09.194Z,3.56
2019-02-27T00:18:09.093Z,3.66
2019-02-27T00:19:09.019Z,3.61
2019-02-27T00:20:08.932Z,3.57
2019-02-27T00:21:10.987Z,3.62
2019-02-27T00:22:08.766Z,3.64
2019-02-27T00:23:08.678Z,3.53
2019-02-27T00:24:08.603Z,3.57
2019-02-27T00:25:08.522Z,3.57
2019-02-27T00:26:09.049Z,3.48
2019-02-27T00:27:08.355Z,3.44
2019-02-27T00:28:08.285Z,3.34
2019-02-27T00:29:08.192Z,3.28
2019-02-27T00:30:08.112Z,3.21
2019-02-27T00:31:11.142Z,3.16
2019-02-27T00:32:07.947Z,3.07
2019-02-27T00:33:07.865Z,3.11
2019-02-27T00:34:07.778Z,3.16
2019-02-27T00:35:07.701Z,3.09
2019-02-27T00:36:11.984Z,2.99
2019-02-27T00:37:07.538Z,3.06
2019-02-27T00:38:07.453Z,3.09
2019-02-27T00:39:07.372Z,3.11
2019-02-27T00:40:07.292Z,3.09
2019-02-27T00:41:07.234Z,3.01
2019-02-27T00:42:07.124Z,3.14
2019-02-27T00:43:07.044Z,3.17
2019-02-27T00:44:06.955Z,3.11
2019-02-27T00:45:07.635Z,3.16
2019-02-27T00:46:06.796Z,3.16
2019-02-27T00:47:06.719Z,3.16
2019-02-27T00:48:06.631Z,3.11
2019-02-27T00:49:06.548Z,3.22
2019-02-27T00:50:06.781Z,3.14
2019-02-27T00:51:06.381Z,3.27
2019-02-27T00:52:06.309Z,3.17
2019-02-27T00:53:06.217Z,3.22
2019-02-27T00:54:06.134Z,3.11
2019-02-27T00:55:06.053Z,3.10
2019-02-27T00:56:05.971Z,3.10
2019-02-27T00:57:05.890Z,3.06
2019-02-27T00:58:05.809Z,3.13
2019-02-27T00:59:05.723Z,3.07
2019-02-27T01:00:06.635Z,3.04
2019-02-27T01:01:05.572Z,3.07
2019-02-27T01:02:05.475Z,2.96
2019-02-27T01:03:05.394Z,3.04
2019-02-27T01:04:05.314Z,3.03
2019-02-27T01:05:06.199Z,3.03
2019-02-27T01:06:05.144Z,3.03
2019-02-27T01:07:05.068Z,3.01
2019-02-27T01:08:04.979Z,3.01
2019-02-27T01:09:06.391Z,2.98
2019-02-27T01:10:04.818Z,3.04
2019-02-27T01:11:04.736Z,2.99
2019-02-27T01:12:04.657Z,2.93
2019-02-27T01:13:04.572Z,2.95
2019-02-27T01:14:04.614Z,2.93
2019-02-27T01:15:04.406Z,2.86
2019-02-27T01:16:04.325Z,2.89
2019-02-27T01:17:04.259Z,2.85
2019-02-27T01:18:04.166Z,2.91
2019-02-27T01:19:04.789Z,2.85
2019-02-27T01:20:03.994Z,2.80
2019-02-27T01:21:03.911Z,2.85
2019-02-27T01:22:03.831Z,2.81
2019-02-27T01:23:03.746Z,2.74
2019-02-27T01:24:03.667Z,2.60
2019-02-27T01:25:03.586Z,2.56
2019-02-27T01:26:03.499Z,2.50
2019-02-27T01:27:04.617Z,2.52
2019-02-27T01:28:03.335Z,2.41
2019-02-27T01:29:03.259Z,2.37
2019-02-27T01:30:03.169Z,2.31
2019-02-27T01:31:03.085Z,2.17
2019-02-27T01:32:03.005Z,2.21
2019-02-27T01:33:04.231Z,2.16
2019-02-27T01:34:02.839Z,2.14
2019-02-27T01:35:02.759Z,2.20
2019-02-27T01:36:02.674Z,2.20
2019-02-27T01:37:02.618Z,2.14
2019-02-27T01:38:05.000Z,2.13
2019-02-27T01:39:02.423Z,1.99
2019-02-27T01:40:02.343Z,2.06
2019-02-27T01:41:02.260Z,2.09
2019-02-27T01:42:02.175Z,1.92
2019-02-27T01:43:05.538Z,1.95
2019-02-27T01:44:02.011Z,1.90
2019-02-27T01:45:01.931Z,1.84
2019-02-27T01:46:01.846Z,1.84
2019-02-27T01:47:02.914Z,1.84
2019-02-27T01:48:01.674Z,1.82
2019-02-27T01:49:01.597Z,1.77
2019-02-27T01:50:01.520Z,1.82
2019-02-27T01:51:01.434Z,1.82
2019-02-27T01:52:02.094Z,1.73
2019-02-27T01:53:01.267Z,1.65
2019-02-27T01:54:01.179Z,1.73
2019-02-27T01:55:01.101Z,1.61
2019-02-27T01:56:01.019Z,1.65
2019-02-27T01:57:02.867Z,1.74
2019-02-27T01:58:00.866Z,1.65
2019-02-27T01:59:00.766Z,1.59
2019-02-27T02:00:00.690Z,1.76
2019-02-27T02:01:00.602Z,1.79
2019-02-27T02:02:01.099Z,1.79
2019-02-27T02:03:00.435Z,1.82
2019-02-27T02:04:00.356Z,1.94
2019-02-27T02:05:00.271Z,1.98
2019-02-27T02:06:00.193Z,1.84
2019-02-27T02:07:00.103Z,1.84
2019-02-27T02:08:00.016Z,1.73
2019-02-27T02:08:59.938Z,1.82
2019-02-27T02:09:59.854Z,1.83
2019-02-27T02:11:01.416Z,1.84
2019-02-27T02:11:59.690Z,1.84
2019-02-27T02:12:59.605Z,1.80
2019-02-27T02:13:59.521Z,1.87
2019-02-27T02:14:59.443Z,1.84
2019-02-27T02:16:00.857Z,1.95
2019-02-27T02:16:59.274Z,2.01
2019-02-27T02:17:59.190Z,1.94
2019-02-27T02:18:59.105Z,1.99
2019-02-27T02:19:59.028Z,2.09
2019-02-27T02:21:01.667Z,2.03
2019-02-27T02:21:58.859Z,1.99
2019-02-27T02:22:58.770Z,2.06
2019-02-27T02:23:58.693Z,2.05
2019-02-27T02:24:58.610Z,2.03
2019-02-27T02:26:01.092Z,1.98
2019-02-27T02:26:58.443Z,1.98
2019-02-27T02:27:58.369Z,1.94
2019-02-27T02:28:58.276Z,1.99
2019-02-27T02:29:58.191Z,2.01
2019-02-27T02:30:58.106Z,1.98
2019-02-27T02:31:58.028Z,1.90
2019-02-27T02:32:57.946Z,1.87
2019-02-27T02:33:57.857Z,1.91
2019-02-27T02:34:57.778Z,1.87
2019-02-27T02:35:57.697Z,1.83
2019-02-27T02:37:01.419Z,1.82
2019-02-27T02:37:57.531Z,1.74
2019-02-27T02:38:57.444Z,1.77
2019-02-27T02:39:57.368Z,1.68
2019-02-27T02:40:57.279Z,1.62
2019-02-27T02:41:57.196Z,1.61
2019-02-27T02:43:02.119Z,1.61
2019-02-27T02:43:57.032Z,1.58
2019-02-27T02:44:57.666Z,1.54
2019-02-27T02:45:56.862Z,1.48
2019-02-27T02:46:56.781Z,1.48
2019-02-27T02:47:56.913Z,1.41
2019-02-27T02:48:56.634Z,1.36
2019-02-27T02:49:56.527Z,1.30
2019-02-27T02:50:56.445Z,1.29
2019-02-27T02:51:56.367Z,1.23
2019-02-27T02:52:56.281Z,1.25
2019-02-27T02:54:00.335Z,1.29
2019-02-27T02:54:56.117Z,1.23
2019-02-27T02:55:56.025Z,1.15
2019-02-27T02:57:00.188Z,1.07
2019-02-27T02:57:55.861Z,0.90
2019-02-27T02:58:55.776Z,0.92
2019-02-27T02:59:59.423Z,0.94
2019-02-27T03:00:55.683Z,1.01
2019-02-27T03:01:55.564Z,1.01
2019-02-27T03:02:57.465Z,1.00
2019-02-27T03:03:55.369Z,0.92
2019-02-27T03:04:55.278Z,0.84
2019-02-27T03:05:59.792Z,0.94
2019-02-27T03:06:55.115Z,0.98
2019-02-27T03:07:55.031Z,0.94
2019-02-27T03:08:56.226Z,1.02
2019-02-27T03:09:54.864Z,1.11
2019-02-27T03:10:54.780Z,1.11
2019-02-27T03:11:55.815Z,1.18
2019-02-27T03:12:54.614Z,1.23
2019-02-27T03:13:54.532Z,1.20
2019-02-27T03:14:54.619Z,1.10
2019-02-27T03:15:54.366Z,0.97
2019-02-27T03:16:54.283Z,0.90
2019-02-27T03:17:55.055Z,0.77
2019-02-27T03:18:54.113Z,0.71
2019-02-27T03:19:54.027Z,0.68
2019-02-27T03:20:53.946Z,0.75
2019-02-27T03:21:53.862Z,0.66
2019-02-27T03:22:53.779Z,0.66
2019-02-27T03:23:53.693Z,0.80
2019-02-27T03:24:53.612Z,0.79
2019-02-27T03:25:53.521Z,0.77
2019-02-27T03:26:53.437Z,0.80
2019-02-27T03:27:53.360Z,0.75
2019-02-27T03:28:53.275Z,0.89
2019-02-27T03:29:53.861Z,0.89
2019-02-27T03:30:53.110Z,0.79
2019-02-27T03:32:00.001Z,0.84
2019-02-27T03:32:52.943Z,0.79
2019-02-27T03:33:52.858Z,0.71
2019-02-27T03:34:52.773Z,0.66
2019-02-27T03:35:52.684Z,0.68
2019-02-27T03:36:52.600Z,0.66
2019-02-27T03:37:52.529Z,0.80
2019-02-27T03:38:55.913Z,0.77
2019-02-27T03:39:52.350Z,0.77
2019-02-27T03:40:52.278Z,0.77
2019-02-27T03:41:58.391Z,0.71
2019-02-27T03:42:52.101Z,0.82
2019-02-27T03:43:52.029Z,0.79
2019-02-27T03:44:55.772Z,0.90
2019-02-27T03:45:51.858Z,1.01
2019-02-27T03:46:51.775Z,0.93
2019-02-27T03:47:52.090Z,0.98
2019-02-27T03:48:51.597Z,0.94
2019-02-27T03:49:51.522Z,1.00
2019-02-27T03:50:51.434Z,0.79
2019-02-27T03:51:51.351Z,0.86
2019-02-27T03:52:51.269Z,0.75
2019-02-27T03:53:51.186Z,0.66
2019-02-27T03:54:56.952Z,0.68
2019-02-27T03:55:51.019Z,0.59
2019-02-27T03:56:50.935Z,0.57
2019-02-27T03:57:54.882Z,0.57
2019-02-27T03:58:50.762Z,0.53
2019-02-27T03:59:50.674Z,0.50
2019-02-27T04:00:53.730Z,0.52
2019-02-27T04:01:50.511Z,0.42
2019-02-27T04:02:50.431Z,0.53
2019-02-27T04:03:54.253Z,0.53
2019-02-27T04:04:50.260Z,0.50
2019-02-27T04:05:50.175Z,0.42
2019-02-27T04:06:52.985Z,0.53
2019-02-27T04:07:50.010Z,0.61
2019-02-27T04:08:49.936Z,0.59
2019-02-27T04:09:54.806Z,0.61
2019-02-27T04:10:49.758Z,0.61
2019-02-27T04:11:49.674Z,0.56
2019-02-27T04:12:51.648Z,0.68
2019-02-27T04:13:49.510Z,0.65
2019-02-27T04:14:49.428Z,0.62
2019-02-27T04:15:53.350Z,0.65
2019-02-27T04:16:49.256Z,0.61
2019-02-27T04:17:52.210Z,0.56
2019-02-27T04:18:49.099Z,0.62
2019-02-27T04:19:49.004Z,0.50
2019-02-27T04:20:50.708Z,0.49
2019-02-27T04:21:48.839Z,0.52
2019-02-27T04:22:48.750Z,0.46
2019-02-27T04:23:49.329Z,0.40
2019-02-27T04:24:48.592Z,0.53
2019-02-27T04:25:48.496Z,0.56
2019-02-27T04:26:48.418Z,0.61
2019-02-27T04:27:48.334Z,0.57
2019-02-27T04:28:48.248Z,0.52
2019-02-27T04:29:48.164Z,0.52
2019-02-27T04:30:51.122Z,0.47
2019-02-27T04:31:47.993Z,0.46
2019-02-27T04:32:48.919Z,0.35
2019-02-27T04:33:47.825Z,0.36
2019-02-27T04:34:47.749Z,0.32
2019-02-27T04:35:47.660Z,0.34
2019-02-27T04:36:47.811Z,0.40
2019-02-27T04:37:47.491Z,0.32
2019-02-27T04:38:47.410Z,0.39
2019-02-27T04:39:47.329Z,0.43
2019-02-27T04:40:47.242Z,0.43
2019-02-27T04:41:49.562Z,0.36
2019-02-27T04:42:47.068Z,0.42
2019-02-27T04:43:46.989Z,0.32
2019-02-27T04:44:46.900Z,0.45
2019-02-27T04:45:47.584Z,0.43
2019-02-27T04:46:46.737Z,0.45
2019-02-27T04:47:46.653Z,0.45
2019-02-27T04:48:46.568Z,0.43
2019-02-27T04:49:46.494Z,0.36
2019-02-27T04:50:46.414Z,0.45
2019-02-27T04:51:48.131Z,0.43
2019-02-27T04:52:46.233Z,0.47
2019-02-27T04:53:46.153Z,0.40
2019-02-27T04:54:46.066Z,0.42
2019-02-27T04:55:47.980Z,0.47
2019-02-27T04:56:45.898Z,0.47
2019-02-27T04:57:45.814Z,0.43
2019-02-27T04:58:45.730Z,0.45
2019-02-27T04:59:45.645Z,0.43
2019-02-27T05:00:45.561Z,0.50
2019-02-27T05:01:45.474Z,0.40
2019-02-27T05:02:45.395Z,0.43
2019-02-27T05:03:45.308Z,0.43
2019-02-27T05:04:45.244Z,0.43
2019-02-27T05:05:45.144Z,0.35
2019-02-27T05:06:47.275Z,0.28
2019-02-27T05:07:44.984Z,0.27
2019-02-27T05:08:44.894Z,0.22
2019-02-27T05:09:44.812Z,0.24
2019-02-27T05:10:44.720Z,0.22
2019-02-27T05:11:47.449Z,0.22
2019-02-27T05:12:47.838Z,0.25
2019-02-27T05:13:44.468Z,0.21
2019-02-27T05:14:44.384Z,0.27
2019-02-27T05:15:44.299Z,0.31
2019-02-27T05:16:46.999Z,0.32
2019-02-27T05:17:44.126Z,0.42
2019-02-27T05:18:44.045Z,0.35
2019-02-27T05:19:43.962Z,0.32
2019-02-27T05:20:45.689Z,0.27
2019-02-27T05:21:43.795Z,0.32
2019-02-27T05:22:43.714Z,0.18
2019-02-27T05:23:43.626Z,0.21
2019-02-27T05:24:43.550Z,0.16
2019-02-27T05:25:43.466Z,0.17
2019-02-27T05:26:43.378Z,0.10
2019-02-27T05:27:43.291Z,0.07
2019-02-27T05:28:43.219Z,0.04
2019-02-27T05:29:43.123Z,-0.01
2019-02-27T05:30:45.323Z,-0.01
2019-02-27T05:31:42.954Z,0.03
2019-02-27T05:32:42.871Z,0.06
2019-02-27T05:33:42.781Z,0.09
2019-02-27T05:34:42.701Z,0.11
2019-02-27T05:35:42.620Z,0.07
2019-02-27T05:36:42.532Z,0.07
2019-02-27T05:37:42.448Z,0.06
2019-02-27T05:38:43.622Z,0.04
2019-02-27T05:39:42.279Z,0.06
2019-02-27T05:40:42.199Z,0.03
2019-02-27T05:41:42.112Z,0.09
2019-02-27T05:42:42.021Z,0.06
2019-02-27T05:43:41.943Z,0.03
2019-02-27T05:44:41.861Z,0.03
2019-02-27T05:45:41.769Z,0.11
2019-02-27T05:46:41.687Z,0.03
2019-02-27T05:47:44.806Z,0.07
2019-02-27T05:48:41.519Z,0.11
2019-02-27T05:49:41.434Z,0.13
2019-02-27T05:50:41.360Z,0.09
2019-02-27T05:51:41.265Z,0.16
2019-02-27T05:52:41.186Z,0.14
2019-02-27T05:53:41.098Z,0.17
2019-02-27T05:54:41.032Z,0.14
2019-02-27T05:55:40.928Z,0.01
2019-02-27T05:56:40.852Z,0.07
2019-02-27T05:57:40.766Z,0.09
2019-02-27T05:58:40.680Z,0.06
2019-02-27T05:59:40.596Z,0.04
2019-02-27T06:00:40.513Z,0.09
2019-02-27T06:01:40.442Z,0.03
2019-02-27T06:02:41.893Z,0.06
2019-02-27T06:03:40.251Z,0.01
2019-02-27T06:04:40.173Z,-0.01
2019-02-27T06:05:40.089Z,-0.04
2019-02-27T06:06:40.000Z,-0.10
2019-02-27T06:07:39.921Z,-0.05
2019-02-27T06:08:39.837Z,-0.15
2019-02-27T06:09:41.398Z,-0.10
2019-02-27T06:10:39.669Z,-0.07
2019-02-27T06:11:39.588Z,-0.07
2019-02-27T06:12:40.746Z,-0.04
2019-02-27T06:13:39.418Z,-0.10
2019-02-27T06:14:39.332Z,-0.05
2019-02-27T06:15:39.247Z,0.03
2019-02-27T06:16:40.859Z,-0.02
2019-02-27T06:17:43.438Z,0.06
2019-02-27T06:18:38.993Z,0.07
2019-02-27T06:19:38.906Z,0.04
2019-02-27T06:20:41.592Z,0.09
2019-02-27T06:21:38.934Z,0.09
2019-02-27T06:22:38.658Z,0.07
2019-02-27T06:23:38.574Z,0.06
2019-02-27T06:24:38.493Z,0.13
2019-02-27T06:25:38.400Z,0.21
2019-02-27T06:26:38.318Z,0.18
2019-02-27T06:27:39.413Z,0.27
2019-02-27T06:28:38.152Z,0.25
2019-02-27T06:29:38.065Z,0.24
2019-02-27T06:30:37.982Z,0.34
2019-02-27T06:31:39.529Z,0.35
2019-02-27T06:32:37.815Z,0.27
2019-02-27T06:33:37.735Z,0.24
2019-02-27T06:34:37.647Z,0.21
2019-02-27T06:35:37.558Z,0.11
2019-02-27T06:36:42.031Z,0.10
2019-02-27T06:37:37.391Z,0.09
2019-02-27T06:38:37.306Z,0.03
2019-02-27T06:39:37.223Z,0.01
2019-02-27T06:40:37.135Z,0.06
2019-02-27T06:41:37.053Z,0.09
2019-02-27T06:42:36.970Z,0.07
2019-02-27T06:43:36.884Z,0.03
2019-02-27T06:44:39.325Z,0.07
2019-02-27T06:45:36.718Z,0.04
2019-02-27T06:46:36.631Z,0.03
2019-02-27T06:47:36.543Z,0.01
2019-02-27T06:48:36.459Z,0.13
2019-02-27T06:49:36.382Z,0.11
2019-02-27T06:50:36.297Z,0.18
2019-02-27T06:51:36.537Z,0.17
2019-02-27T06:52:36.127Z,0.24
2019-02-27T06:53:36.038Z,0.22
2019-02-27T06:54:37.768Z,0.18
2019-02-27T06:55:35.876Z,0.34
2019-02-27T06:56:35.788Z,0.36
2019-02-27T06:57:35.705Z,0.32
2019-02-27T06:58:35.622Z,0.32
2019-02-27T06:59:35.536Z,0.40
2019-02-27T07:00:36.726Z,0.43
2019-02-27T07:01:35.370Z,0.52
2019-02-27T07:02:35.285Z,0.46
2019-02-27T07:03:35.198Z,0.52
2019-02-27T07:04:36.433Z,0.52
2019-02-27T07:05:35.031Z,0.61
2019-02-27T07:06:36.869Z,0.50
2019-02-27T07:07:34.877Z,0.50
2019-02-27T07:08:37.852Z,0.59
2019-02-27T07:09:34.696Z,0.64
2019-02-27T07:10:34.608Z,0.64
2019-02-27T07:11:34.528Z,0.66
2019-02-27T07:12:34.436Z,0.79
2019-02-27T07:13:34.364Z,0.74
2019-02-27T07:14:36.515Z,0.84
2019-02-27T07:15:34.189Z,0.86
2019-02-27T07:16:34.105Z,0.90
2019-02-27T07:17:34.025Z,0.92
2019-02-27T07:18:33.935Z,0.98
2019-02-27T07:19:33.853Z,1.02
2019-02-27T07:20:33.763Z,1.08
2019-02-27T07:21:33.684Z,1.19
2019-02-27T07:22:33.598Z,1.19
2019-02-27T07:23:35.235Z,1.25
2019-02-27T07:24:33.803Z,1.26
2019-02-27T07:25:33.349Z,1.32
2019-02-27T07:26:33.263Z,1.37
2019-02-27T07:27:33.177Z,1.41
2019-02-27T07:28:33.102Z,1.48
2019-02-27T07:29:33.015Z,1.62
2019-02-27T07:30:32.930Z,1.80
2019-02-27T07:31:32.845Z,1.87
2019-02-27T07:32:32.755Z,2.01
2019-02-27T07:33:32.678Z,2.10
2019-02-27T07:34:32.591Z,2.16
2019-02-27T07:35:32.507Z,2.23
2019-02-27T07:36:32.428Z,2.41
2019-02-27T07:37:32.342Z,2.44
2019-02-27T07:38:32.258Z,2.57
2019-02-27T07:39:32.787Z,2.68
2019-02-27T07:40:32.095Z,2.85
2019-02-27T07:41:32.007Z,2.84
2019-02-27T07:42:32.634Z,2.95
2019-02-27T07:43:31.845Z,3.06
2019-02-27T07:44:32.226Z,3.13
2019-02-27T07:45:31.675Z,3.44
2019-02-27T07:46:31.588Z,3.65
2019-02-27T07:47:31.517Z,3.72
2019-02-27T07:48:31.426Z,3.82
2019-02-27T07:49:31.587Z,3.83
2019-02-27T07:50:32.564Z,4.04
2019-02-27T07:51:31.181Z,4.10
2019-02-27T07:52:32.613Z,4.20
2019-02-27T07:53:31.012Z,4.18
2019-02-27T07:54:30.927Z,4.48
2019-02-27T07:55:30.842Z,4.54
2019-02-27T07:56:30.764Z,4.58
2019-02-27T07:57:30.686Z,4.64
2019-02-27T07:58:33.695Z,4.85
2019-02-27T07:59:30.509Z,5.00
2019-02-27T08:00:30.427Z,5.20
2019-02-27T08:01:30.340Z,5.28
2019-02-27T08:02:30.259Z,5.44
2019-02-27T08:03:30.180Z,5.57
2019-02-27T08:04:30.098Z,5.54
2019-02-27T08:05:30.013Z,5.70
2019-02-27T08:06:29.932Z,5.88
2019-02-27T08:07:29.857Z,5.81
2019-02-27T08:08:29.767Z,6.10
2019-02-27T08:09:30.255Z,6.14
2019-02-27T08:10:29.606Z,6.27
2019-02-27T08:11:29.516Z,6.21
2019-02-27T08:12:29.439Z,6.47
2019-02-27T08:13:29.764Z,6.47
2019-02-27T08:14:29.278Z,6.48
2019-02-27T08:15:29.196Z,6.57
2019-02-27T08:16:29.116Z,6.70
2019-02-27T08:17:29.028Z,6.73
2019-02-27T08:18:30.441Z,6.72
2019-02-27T08:19:28.867Z,6.83
2019-02-27T08:20:28.786Z,6.90
2019-02-27T08:21:28.759Z,6.96
2019-02-27T08:22:28.622Z,7.19
2019-02-27T08:23:28.537Z,7.39
2019-02-27T08:24:28.460Z,7.38
2019-02-27T08:25:28.379Z,7.47
2019-02-27T08:26:28.299Z,7.45
2019-02-27T08:27:28.215Z,7.42
2019-02-27T08:28:28.139Z,7.49
2019-02-27T08:29:28.049Z,7.55
2019-02-27T08:30:27.973Z,7.67
2019-02-27T08:31:28.756Z,7.86
2019-02-27T08:32:27.807Z,8.11
2019-02-27T08:33:27.728Z,8.24
2019-02-27T08:34:27.648Z,8.34
2019-02-27T08:35:27.567Z,8.42
2019-02-27T08:36:27.484Z,8.52
2019-02-27T08:37:27.401Z,8.57
2019-02-27T08:38:27.328Z,8.75
2019-02-27T08:39:27.243Z,8.80
2019-02-27T08:40:27.158Z,8.97
2019-02-27T08:41:29.164Z,9.13
2019-02-27T08:42:27.005Z,9.20
2019-02-27T08:43:26.923Z,9.27
2019-02-27T08:44:26.842Z,9.40
2019-02-27T08:45:27.692Z,9.58
2019-02-27T08:46:26.682Z,9.61
2019-02-27T08:47:26.601Z,9.67
2019-02-27T08:48:26.521Z,9.82
2019-02-27T08:49:26.435Z,9.89
2019-02-27T08:50:29.213Z,10.03
2019-02-27T08:51:26.281Z,10.10
2019-02-27T08:52:26.222Z,10.19
2019-02-27T08:53:26.966Z,10.25
2019-02-27T08:54:26.037Z,10.49
2019-02-27T08:55:25.963Z,10.43
2019-02-27T08:56:25.885Z,10.56
2019-02-27T08:57:25.802Z,10.71
2019-02-27T08:58:26.673Z,10.75
2019-02-27T08:59:25.644Z,10.78
2019-02-27T09:00:25.563Z,10.92
2019-02-27T09:01:25.477Z,11.03
2019-02-27T09:02:29.254Z,11.08
2019-02-27T09:03:25.322Z,11.16
2019-02-27T09:04:25.246Z,11.18
2019-02-27T09:05:25.175Z,11.32
2019-02-27T09:06:27.541Z,11.43
2019-02-27T09:07:25.005Z,11.53
2019-02-27T09:08:24.929Z,11.39
2019-02-27T09:09:24.845Z,11.61
2019-02-27T09:10:26.864Z,11.60
2019-02-27T09:11:24.697Z,11.67
2019-02-27T09:12:24.611Z,11.84
2019-02-27T09:13:24.533Z,11.90
2019-02-27T09:14:24.453Z,12.05
2019-02-27T09:15:24.397Z,12.13
2019-02-27T09:16:26.014Z,12.11
2019-02-27T09:17:26.886Z,12.13
2019-02-27T09:18:24.143Z,12.34
2019-02-27T09:19:24.063Z,12.44
2019-02-27T09:20:23.979Z,12.41
2019-02-27T09:21:24.959Z,12.45
2019-02-27T09:22:23.825Z,12.45
2019-02-27T09:23:23.745Z,12.46
2019-02-27T09:24:23.677Z,12.45
2019-02-27T09:25:24.638Z,12.59
2019-02-27T09:26:24.321Z,12.59
2019-02-27T09:27:23.437Z,12.64
2019-02-27T09:28:23.359Z,12.69
2019-02-27T09:29:23.279Z,12.71
2019-02-27T09:30:23.208Z,12.81
2019-02-27T09:31:23.124Z,12.94
2019-02-27T09:32:23.048Z,13.02
2019-02-27T09:33:22.968Z,13.18
2019-02-27T09:34:26.613Z,13.22
2019-02-27T09:35:22.811Z,13.18
2019-02-27T09:36:22.737Z,13.37
2019-02-27T09:37:22.656Z,13.37
2019-02-27T09:38:24.395Z,13.43
2019-02-27T09:39:22.495Z,13.50
2019-02-27T09:40:22.422Z,13.52
2019-02-27T09:41:22.347Z,13.56
2019-02-27T09:42:22.271Z,13.59
2019-02-27T09:43:24.079Z,13.59
2019-02-27T09:44:22.124Z,13.68
2019-02-27T09:45:22.037Z,13.73
2019-02-27T09:46:21.961Z,13.86
2019-02-27T09:47:23.218Z,13.95
2019-02-27T09:48:21.806Z,13.92
2019-02-27T09:49:21.726Z,13.94
2019-02-27T09:50:21.650Z,14.11
2019-02-27T09:51:22.223Z,14.07
2019-02-27T09:52:21.496Z,14.05
2019-02-27T09:53:21.419Z,14.13
2019-02-27T09:54:21.338Z,14.27
2019-02-27T09:55:21.262Z,14.34
2019-02-27T09:56:21.193Z,14.44
2019-02-27T09:57:21.107Z,14.47
2019-02-27T09:58:22.577Z,14.59
2019-02-27T09:59:20.961Z,14.75
2019-02-27T10:00:20.882Z,14.69
2019-02-27T10:01:20.808Z,14.65
2019-02-27T10:02:20.739Z,14.85
2019-02-27T10:03:21.572Z,15.08
2019-02-27T10:04:20.573Z,15.02
2019-02-27T10:05:20.532Z,14.97
2019-02-27T10:06:20.422Z,15.02
2019-02-27T10:07:20.362Z,15.15
2019-02-27T10:08:20.280Z,15.15
2019-02-27T10:09:20.257Z,15.41
2019-02-27T10:10:20.112Z,15.38
2019-02-27T10:11:22.278Z,15.51
2019-02-27T10:12:19.964Z,15.55
2019-02-27T10:13:19.920Z,15.57
2019-02-27T10:14:19.814Z,15.68
2019-02-27T10:15:19.736Z,15.67
2019-02-27T10:16:19.665Z,15.89
2019-02-27T10:17:19.585Z,16.03
2019-02-27T10:18:22.005Z,16.03
2019-02-27T10:19:19.435Z,15.97
2019-02-27T10:20:19.366Z,15.78
2019-02-27T10:21:19.275Z,15.79
2019-02-27T10:22:20.183Z,15.78
2019-02-27T10:23:19.129Z,15.88
2019-02-27T10:24:19.051Z,15.73
2019-02-27T10:25:19.015Z,15.71
2019-02-27T10:26:19.423Z,15.78
2019-02-27T10:27:18.829Z,15.88
2019-02-27T10:28:18.767Z,16.06
2019-02-27T10:29:19.096Z,16.16
2019-02-27T10:30:18.601Z,16.37
2019-02-27T10:31:18.563Z,16.40
2019-02-27T10:32:18.473Z,16.50
2019-02-27T10:33:18.375Z,16.41
2019-02-27T10:34:18.343Z,16.55
2019-02-27T10:35:18.231Z,16.56
2019-02-27T10:36:18.154Z,16.59
2019-02-27T10:37:18.976Z,16.55
2019-02-27T10:38:18.002Z,16.50
2019-02-27T10:39:17.930Z,16.56
2019-02-27T10:40:17.857Z,16.44
2019-02-27T10:41:17.781Z,16.59
2019-02-27T10:42:17.705Z,16.59
2019-02-27T10:43:17.629Z,16.65
2019-02-27T10:44:17.557Z,16.73
2019-02-27T10:45:17.483Z,16.70
2019-02-27T10:46:17.404Z,16.70
2019-02-27T10:47:17.326Z,16.81
2019-02-27T10:48:17.272Z,16.89
2019-02-27T10:49:21.440Z,17.00
2019-02-27T10:50:17.108Z,17.15
2019-02-27T10:51:17.034Z,17.20
2019-02-27T10:52:16.962Z,17.28
2019-02-27T10:53:16.883Z,17.38
2019-02-27T10:54:16.814Z,17.17
2019-02-27T10:55:16.738Z,17.30
2019-02-27T10:56:17.529Z,17.17
2019-02-27T10:57:16.590Z,17.15
2019-02-27T10:58:16.516Z,17.11
2019-02-27T10:59:16.438Z,17.05
2019-02-27T11:00:16.369Z,16.95
2019-02-27T11:01:16.292Z,16.96
2019-02-27T11:02:16.220Z,16.99
2019-02-27T11:03:16.142Z,17.08
2019-02-27T11:04:16.069Z,17.14
2019-02-27T11:05:17.789Z,17.03
2019-02-27T11:06:15.916Z,16.90
2019-02-27T11:07:16.806Z,16.93
2019-02-27T11:08:15.781Z,17.07
2019-02-27T11:09:15.698Z,17.02
2019-02-27T11:10:15.625Z,17.07
2019-02-27T11:11:16.460Z,17.13
2019-02-27T11:12:15.479Z,17.21
2019-02-27T11:13:15.404Z,17.20
2019-02-27T11:14:15.329Z,17.43
2019-02-27T11:15:15.254Z,17.54
2019-02-27T11:16:15.574Z,17.47
2019-02-27T11:17:15.105Z,17.44
2019-02-27T11:18:15.032Z,17.54
2019-02-27T11:19:16.662Z,17.53
2019-02-27T11:20:20.247Z,17.47
2019-02-27T11:21:14.817Z,17.39
2019-02-27T11:22:14.739Z,17.48
2019-02-27T11:23:14.667Z,17.47
2019-02-27T11:24:17.321Z,17.44
2019-02-27T11:25:14.512Z,17.33
2019-02-27T11:26:14.446Z,17.29
2019-02-27T11:27:14.370Z,17.28
2019-02-27T11:28:14.300Z,17.40
2019-02-27T11:29:14.225Z,17.50
2019-02-27T11:30:14.156Z,17.51
2019-02-27T11:31:15.513Z,17.64
2019-02-27T11:32:14.004Z,17.60
2019-02-27T11:33:25.241Z,17.69
2019-02-27T11:34:13.862Z,17.70
2019-02-27T11:35:13.785Z,17.77
2019-02-27T11:36:13.703Z,17.74
2019-02-27T11:37:14.022Z,17.71
2019-02-27T11:38:13.565Z,17.77
2019-02-27T11:39:13.493Z,17.67
2019-02-27T11:40:13.425Z,17.55
2019-02-27T11:41:15.352Z,17.70
2019-02-27T11:42:13.270Z,17.71
2019-02-27T11:43:13.196Z,17.81
2019-02-27T11:44:14.307Z,17.89
2019-02-27T11:45:13.049Z,18.07
2019-02-27T11:46:12.974Z,17.94
2019-02-27T11:47:12.907Z,18.09
2019-02-27T11:48:12.833Z,18.04
2019-02-27T11:49:12.758Z,18.14
2019-02-27T11:50:14.693Z,18.21
2019-02-27T11:51:13.989Z,18.16
2019-02-27T11:52:12.539Z,18.16
2019-02-27T11:53:12.466Z,18.06
2019-02-27T11:54:14.511Z,18.21
2019-02-27T11:55:14.814Z,18.18
2019-02-27T11:56:12.244Z,18.27
2019-02-27T11:57:12.173Z,18.19
2019-02-27T11:58:12.100Z,18.07
2019-02-27T11:59:12.950Z,18.10
2019-02-27T12:00:13.647Z,18.13
2019-02-27T12:01:12.248Z,18.13
2019-02-27T12:02:11.806Z,18.14
2019-02-27T12:03:12.013Z,18.07
2019-02-27T12:04:11.664Z,18.10
2019-02-27T12:05:11.594Z,18.18
2019-02-27T12:06:11.509Z,18.09
2019-02-27T12:07:12.287Z,18.06
2019-02-27T12:08:11.492Z,17.94
2019-02-27T12:09:11.297Z,18.09
2019-02-27T12:10:11.245Z,17.95
2019-02-27T12:11:13.398Z,18.02
2019-02-27T12:12:11.078Z,18.10
2019-02-27T12:13:11.004Z,18.19
2019-02-27T12:14:10.932Z,18.25
2019-02-27T12:15:10.860Z,18.27
2019-02-27T12:16:10.791Z,18.18
2019-02-27T12:17:10.708Z,18.11
2019-02-27T12:18:10.636Z,18.22
2019-02-27T12:19:10.570Z,18.37
2019-02-27T12:20:10.491Z,18.31
2019-02-27T12:21:10.418Z,18.34
2019-02-27T12:22:10.345Z,18.49
2019-02-27T12:23:10.829Z,18.50
2019-02-27T12:24:10.199Z,18.40
2019-02-27T12:25:10.133Z,18.39
2019-02-27T12:26:10.068Z,18.40
2019-02-27T12:27:10.381Z,18.53
2019-02-27T12:28:09.912Z,18.50
2019-02-27T12:29:09.838Z,18.65
2019-02-27T12:30:09.773Z,18.68
2019-02-27T12:31:11.099Z,18.74
2019-02-27T12:32:09.624Z,18.79
2019-02-27T12:33:09.553Z,18.65
2019-02-27T12:34:09.479Z,18.69
2019-02-27T12:35:10.849Z,18.61
2019-02-27T12:36:09.335Z,18.58
2019-02-27T12:37:19.097Z,18.53
2019-02-27T12:38:09.185Z,18.55
2019-02-27T12:39:09.114Z,18.57
2019-02-27T12:40:09.044Z,18.59
2019-02-27T12:41:08.976Z,18.61
2019-02-27T12:42:08.907Z,18.62
2019-02-27T12:43:08.821Z,18.49
2019-02-27T12:44:08.752Z,18.47
2019-02-27T12:45:08.681Z,18.46
2019-02-27T12:46:09.752Z,18.49
2019-02-27T12:47:08.534Z,18.55
2019-02-27T12:48:08.467Z,18.62
2019-02-27T12:49:08.392Z,18.73
2019-02-27T12:50:08.319Z,18.76
2019-02-27T12:51:08.248Z,18.82
2019-02-27T12:52:08.939Z,18.65
2019-02-27T12:53:08.102Z,18.69
2019-02-27T12:54:08.029Z,18.62
2019-02-27T12:55:07.955Z,18.69
2019-02-27T12:56:08.477Z,18.77
2019-02-27T12:57:07.813Z,18.97
2019-02-27T12:58:07.735Z,19.08
2019-02-27T12:59:07.674Z,19.05
2019-02-27T13:00:08.433Z,19.05
2019-02-27T13:01:07.520Z,19.08
2019-02-27T13:02:08.492Z,19.14
2019-02-27T13:03:09.309Z,19.05
2019-02-27T13:04:07.304Z,19.05
2019-02-27T13:05:07.233Z,18.99
2019-02-27T13:06:07.159Z,18.99
2019-02-27T13:07:10.245Z,18.83
2019-02-27T13:08:07.018Z,18.80